PDT,Max TemperatureF,Mean TemperatureF,Min TemperatureF,Max Dew PointF,MeanDew PointF,Min DewpointF,Max Humidity, Mean Humidity, Min Humidity, Max Sea Level PressureIn, Mean Sea Level PressureIn, Min Sea Level PressureIn, Max VisibilityMiles, Mean VisibilityMiles, Min VisibilityMiles, Max Wind SpeedMPH, Mean Wind SpeedMPH, Max Gust SpeedMPH,PrecipitationIn, CloudCover, Events, WindDirDegrees
2013-10-1,73,59,45,47,45,42,93,65,37,30.05,30.00,29.96,10,10,10,15,5,20,0.00,0,,322
2013-10-2,72,58,44,46,42,38,93,62,31,30.08,30.02,29.97,10,10,10,17,3,22,0.00,0,,330
2013-10-3,73,58,43,38,36,31,71,47,23,30.14,30.08,30.01,10,10,10,17,8,25,0.00,0,,325
2013-10-4,87,65,43,35,26,6,65,35,5,30.12,30.08,30.03,10,10,10,16,5,22,0.00,0,,337
2013-10-5,87,62,37,37,29,16,82,45,7,30.22,30.16,30.09,10,10,10,8,0,10,0.00,0,,65
2013-10-6,86,62,37,39,32,22,85,47,9,30.17,30.09,30.00,10,10,10,10,2,14,0.00,0,,137
2013-10-7,82,61,40,44,35,25,76,46,16,30.04,29.97,29.89,10,10,10,13,2,17,0.00,0,,310
2013-10-8,75,59,42,44,41,39,89,59,29,29.96,29.86,29.77,10,10,10,16,2,21,0.00,0,,351
2013-10-9,74,60,45,42,39,36,77,52,27,29.78,29.70,29.64,10,10,9,15,7,20,0.00,0,,327
2013-10-10,77,60,43,40,38,35,83,53,23,30.00,29.88,29.80,10,10,10,14,1,20,0.00,0,,204
2013-10-11,77,58,38,43,39,36,86,57,27,30.09,30.02,29.96,10,10,10,13,1,15,0.00,0,,7
2013-10-12,74,57,39,45,41,35,89,57,25,30.01,29.96,29.88,10,10,10,22,2,30,0.00,0,,341
2013-10-13,78,58,38,42,38,28,89,53,16,30.09,30.01,29.95,10,10,10,6,1,9,0.00,0,,359
2013-10-14,81,60,39,40,35,31,85,51,17,30.15,30.08,29.99,10,10,10,10,1,14,0.00,0,,291
2013-10-15,86,61,36,37,32,17,85,47,8,30.09,30.02,29.94,10,10,10,6,0,8,0.00,0,,105
2013-10-16,84,61,37,36,31,24,85,49,12,30.12,30.06,30.01,10,10,10,10,0,14,0.00,0,,359
2013-10-17,84,61,38,35,33,29,79,47,14,30.12,30.04,29.96,10,10,10,10,1,14,0.00,0,,180
2013-10-18,88,64,39,39,35,30,79,46,13,30.07,30.02,29.95,10,10,10,12,1,15,0.00,0,,344
2013-10-19,88,64,39,38,36,29,85,49,12,30.11,30.04,29.98,10,10,10,9,0,13,0.00,0,,313
2013-10-20,88,64,40,41,38,34,82,50,17,30.04,29.97,29.88,10,10,10,9,1,12,0.00,0,,344
2013-10-21,88,65,41,41,39,36,82,49,16,30.00,29.94,29.87,10,10,10,8,1,10,0.00,0,,120
2013-10-22,87,64,41,42,37,27,76,44,11,30.03,29.96,29.89,10,10,10,12,2,15,0.00,0,,101
2013-10-23,88,64,40,40,37,26,92,52,11,29.98,29.93,29.85,10,10,10,7,1,9,0.00,0,,10
2013-10-24,78,58,37,44,39,34,85,56,26,30.10,30.00,29.95,10,10,10,9,1,17,0.00,0,,168
2013-10-25,80,60,39,47,41,35,89,55,21,30.17,30.12,30.07,10,10,10,8,1,10,0.00,0,,12
2013-10-26,86,63,40,42,38,31,92,53,13,30.17,30.09,30.01,10,10,10,9,0,13,0.00,0,,346
2013-10-27,72,55,38,42,37,34,85,58,30,30.02,29.83,29.68,10,10,6,16,3,22,0.00,0,,333
2013-10-28,65,54,42,42,40,38,89,63,37,29.83,29.71,29.66,10,10,10,14,3,21,0.00,0,,342
2013-10-29,65,50,35,44,40,33,92,66,40,30.06,29.96,29.84,10,10,10,7,1,9,0.00,4,,356
2013-10-30,70,54,37,43,41,36,93,65,37,30.16,30.10,30.06,10,10,10,10,0,15,0.00,0,,290
2013-10-31,78,58,37,45,40,34,92,60,28,30.20,30.13,30.05,10,10,10,5,0,7,0.00,0,,280